createdAt,value
2022-12-23T00:00:24.385Z,9.443654
2022-12-23T00:01:24.388Z,9.443675
2022-12-23T00:02:24.495Z,9.443661
2022-12-23T00:03:24.487Z,9.443692
2022-12-23T00:04:24.426Z,9.443583
2022-12-23T00:05:24.341Z,9.443669
2022-12-23T00:06:24.359Z,9.443707
2022-12-23T00:07:24.353Z,9.443691
2022-12-23T00:08:24.829Z,9.443669
2022-12-23T00:09:24.343Z,9.443686
2022-12-23T00:10:24.302Z,9.443687
2022-12-23T00:11:24.320Z,9.443671
2022-12-23T00:12:24.304Z,9.443690
2022-12-23T00:13:24.318Z,9.443742
2022-12-23T00:14:24.274Z,9.443783
2022-12-23T00:15:24.294Z,9.443795
2022-12-23T00:16:24.353Z,9.443765
2022-12-23T00:17:24.347Z,9.443757
2022-12-23T00:18:24.256Z,9.443755
2022-12-23T00:19:24.244Z,9.443676
2022-12-23T00:20:24.273Z,9.443695
2022-12-23T00:21:24.289Z,9.443650
2022-12-23T00:22:24.226Z,9.443716
2022-12-23T00:23:24.236Z,9.443728
2022-12-23T00:24:24.304Z,9.443733
2022-12-23T00:25:25.208Z,9.443766
2022-12-23T00:26:24.266Z,9.443721
2022-12-23T00:27:24.211Z,9.443719
2022-12-23T00:28:24.193Z,9.443668
2022-12-23T00:29:24.219Z,9.443695
2022-12-23T00:30:24.219Z,9.443736
2022-12-23T00:31:24.293Z,9.443723
2022-12-23T00:32:24.196Z,9.443704
2022-12-23T00:33:24.166Z,9.443692
2022-12-23T00:34:24.181Z,9.443670
2022-12-23T00:35:24.141Z,9.443806
2022-12-23T00:36:24.366Z,9.443869
2022-12-23T00:37:24.138Z,9.443746
2022-12-23T00:38:24.143Z,9.443808
2022-12-23T00:39:24.133Z,9.443823
2022-12-23T00:40:24.114Z,9.443843
2022-12-23T00:41:24.156Z,9.443824
2022-12-23T00:42:24.106Z,9.443892
2022-12-23T00:43:24.157Z,9.443850
2022-12-23T00:44:24.113Z,9.443722
2022-12-23T00:45:24.121Z,9.443715
2022-12-23T00:46:24.101Z,9.443772
2022-12-23T00:47:24.081Z,9.443934
2022-12-23T00:48:24.075Z,9.443751
2022-12-23T00:49:24.124Z,9.443829
2022-12-23T00:50:24.074Z,9.443734
2022-12-23T00:51:24.044Z,9.443807
2022-12-23T00:52:24.048Z,9.443775
2022-12-23T00:53:24.050Z,9.443769
2022-12-23T00:54:24.037Z,9.443781
2022-12-23T00:55:24.031Z,9.443851
2022-12-23T00:56:24.041Z,9.443968
2022-12-23T00:57:24.021Z,9.443876
2022-12-23T00:58:24.016Z,9.444011
2022-12-23T00:59:23.999Z,9.443845
2022-12-23T01:00:24.005Z,9.443778
2022-12-23T01:01:24.078Z,9.443892
2022-12-23T01:02:24.135Z,9.443892
2022-12-23T01:03:24.125Z,9.443713
2022-12-23T01:04:23.979Z,9.443762
2022-12-23T01:05:23.993Z,9.443751
2022-12-23T01:06:23.950Z,9.443677
2022-12-23T01:07:23.944Z,9.443752
2022-12-23T01:08:24.025Z,9.443702
2022-12-23T01:09:23.949Z,9.443707
2022-12-23T01:10:23.932Z,9.443669
2022-12-23T01:11:23.923Z,9.443689
2022-12-23T01:12:23.956Z,9.443681
2022-12-23T01:13:23.914Z,9.443686
2022-12-23T01:14:23.906Z,9.443740
2022-12-23T01:15:23.880Z,9.443669
2022-12-23T01:16:23.933Z,9.443714
2022-12-23T01:17:23.943Z,9.443624
2022-12-23T01:18:23.891Z,9.443691
2022-12-23T01:19:23.884Z,9.443789
2022-12-23T01:20:23.910Z,9.443707
2022-12-23T01:21:23.837Z,9.443694
2022-12-23T01:22:23.829Z,9.443731
2022-12-23T01:23:23.854Z,9.443739
2022-12-23T01:24:23.821Z,9.443653
2022-12-23T01:25:23.834Z,9.443657
2022-12-23T01:26:23.818Z,9.443678
2022-12-23T01:27:23.804Z,9.443670
2022-12-23T01:28:23.788Z,9.443667
2022-12-23T01:29:25.477Z,9.443689
2022-12-23T01:30:23.793Z,9.443699
2022-12-23T01:31:23.841Z,9.443632
2022-12-23T01:32:23.766Z,9.443573
2022-12-23T01:33:23.755Z,9.443664
2022-12-23T01:34:23.772Z,9.443778
2022-12-23T01:35:23.732Z,9.443790
2022-12-23T01:36:23.815Z,9.443696
2022-12-23T01:37:23.737Z,9.443684
2022-12-23T01:38:23.731Z,9.443696
2022-12-23T01:39:23.732Z,9.443685
2022-12-23T01:40:23.725Z,9.443685
2022-12-23T01:41:24.181Z,9.443677
2022-12-23T01:42:23.711Z,9.443731
2022-12-23T01:43:23.687Z,9.443749
2022-12-23T01:44:23.704Z,9.443735
2022-12-23T01:45:23.688Z,9.443729
2022-12-23T01:46:23.721Z,9.443747
2022-12-23T01:47:23.670Z,9.443747
2022-12-23T01:48:23.684Z,9.443754
2022-12-23T01:49:23.675Z,9.443771
2022-12-23T01:50:23.632Z,9.443744
2022-12-23T01:51:23.663Z,9.443789
2022-12-23T01:52:23.652Z,9.443785
2022-12-23T01:53:23.652Z,9.443788
2022-12-23T01:54:23.613Z,9.443773
2022-12-23T01:55:23.661Z,9.443756
2022-12-23T01:56:23.601Z,9.443776
2022-12-23T01:57:23.598Z,9.443739
2022-12-23T01:58:23.623Z,9.443673
2022-12-23T01:59:23.578Z,9.443659
2022-12-23T02:00:23.567Z,9.443749
2022-12-23T02:01:23.683Z,9.443710
2022-12-23T02:02:23.606Z,9.443707
2022-12-23T02:03:23.563Z,9.443687
2022-12-23T02:04:23.562Z,9.443704
2022-12-23T02:05:23.572Z,9.443723
2022-12-23T02:06:23.551Z,9.443752
2022-12-23T02:07:23.535Z,9.443723
2022-12-23T02:08:23.530Z,9.443788
2022-12-23T02:09:23.537Z,9.443779
2022-12-23T02:10:23.523Z,9.443727
2022-12-23T02:11:23.551Z,9.443730
2022-12-23T02:12:23.501Z,9.443671
2022-12-23T02:13:23.486Z,9.443702
2022-12-23T02:14:23.510Z,9.443716
2022-12-23T02:15:23.507Z,9.443695
2022-12-23T02:16:23.496Z,9.443686
2022-12-23T02:17:23.499Z,9.443707
2022-12-23T02:18:23.486Z,9.443744
2022-12-23T02:19:23.458Z,9.443743
2022-12-23T02:20:23.435Z,9.443675
2022-12-23T02:21:23.480Z,9.443668
2022-12-23T02:22:23.437Z,9.443678
2022-12-23T02:23:23.474Z,9.443694
2022-12-23T02:24:23.418Z,9.443699
2022-12-23T02:25:23.455Z,9.443689
2022-12-23T02:26:23.396Z,9.443660
2022-12-23T02:27:23.386Z,9.443616
2022-12-23T02:28:23.419Z,9.443676
2022-12-23T02:29:23.411Z,9.443588
2022-12-23T02:30:23.369Z,9.443674
2022-12-23T02:31:23.483Z,9.443537
2022-12-23T02:32:23.362Z,9.443613
2022-12-23T02:33:23.474Z,9.443749
2022-12-23T02:34:23.388Z,9.443711
2022-12-23T02:35:23.363Z,9.443759
2022-12-23T02:36:23.386Z,9.443657
2022-12-23T02:37:23.340Z,9.443683
2022-12-23T02:38:23.320Z,9.443763
2022-12-23T02:39:23.305Z,9.443700
2022-12-23T02:40:23.338Z,9.443689
2022-12-23T02:41:23.322Z,9.443724
2022-12-23T02:42:23.308Z,9.443800
2022-12-23T02:43:23.295Z,9.443762
2022-12-23T02:44:23.281Z,9.443687
2022-12-23T02:45:23.304Z,9.443666
2022-12-23T02:46:23.315Z,9.443603
2022-12-23T02:47:23.251Z,9.443595
2022-12-23T02:48:23.243Z,9.443590
2022-12-23T02:49:24.231Z,9.443617
2022-12-23T02:50:23.249Z,9.443674
2022-12-23T02:51:23.278Z,9.443675
2022-12-23T02:52:23.228Z,9.443624
2022-12-23T02:53:23.234Z,9.443592
2022-12-23T02:54:23.290Z,9.443409
2022-12-23T02:55:23.258Z,9.443480
2022-12-23T02:56:23.243Z,9.443590
2022-12-23T02:57:23.191Z,9.443789
2022-12-23T02:58:23.242Z,9.443705
2022-12-23T02:59:23.180Z,9.443763
2022-12-23T03:00:23.167Z,9.443744
2022-12-23T03:01:23.271Z,9.443790
2022-12-23T03:02:23.317Z,9.443793
2022-12-23T03:03:23.237Z,9.443740
2022-12-23T03:04:24.213Z,9.443714
2022-12-23T03:05:23.134Z,9.443695
2022-12-23T03:06:23.172Z,9.443738
2022-12-23T03:07:23.163Z,9.443821
2022-12-23T03:08:23.122Z,9.443862
2022-12-23T03:09:23.126Z,9.443870
2022-12-23T03:10:23.099Z,9.443793
2022-12-23T03:11:23.113Z,9.443816
2022-12-23T03:12:23.148Z,9.443874
2022-12-23T03:13:23.081Z,9.443864
2022-12-23T03:14:23.128Z,9.443830
2022-12-23T03:15:23.071Z,9.443782
2022-12-23T03:16:23.100Z,9.443810
2022-12-23T03:17:23.759Z,9.443875
2022-12-23T03:18:23.111Z,9.443866
2022-12-23T03:19:23.087Z,9.443773
2022-12-23T03:20:23.063Z,9.443822
2022-12-23T03:21:23.038Z,9.443867
2022-12-23T03:22:23.054Z,9.443832
2022-12-23T03:23:23.077Z,9.443828
2022-12-23T03:24:23.067Z,9.443836
2022-12-23T03:25:23.057Z,9.443871
2022-12-23T03:26:23.002Z,9.443826
2022-12-23T03:27:22.997Z,9.443808
2022-12-23T03:28:22.994Z,9.443811
2022-12-23T03:29:22.981Z,9.443786
2022-12-23T03:30:22.996Z,9.443798
2022-12-23T03:31:23.068Z,9.443819
2022-12-23T03:32:22.948Z,9.443723
2022-12-23T03:33:23.952Z,9.443785
2022-12-23T03:34:23.010Z,9.443783
2022-12-23T03:35:23.985Z,9.443787
2022-12-23T03:36:22.940Z,9.443773
2022-12-23T03:37:22.946Z,9.443789
2022-12-23T03:38:22.910Z,9.443780
2022-12-23T03:39:22.941Z,9.443824
2022-12-23T03:40:22.950Z,9.443794
2022-12-23T03:41:22.922Z,9.443793
2022-12-23T03:42:22.903Z,9.443749
2022-12-23T03:43:22.894Z,9.443879
2022-12-23T03:44:22.903Z,9.443753
2022-12-23T03:45:40.482Z,9.443813
2022-12-23T03:46:24.994Z,9.443714
2022-12-23T03:47:22.862Z,9.443582
2022-12-23T03:48:22.870Z,9.443761
2022-12-23T03:49:22.861Z,9.443666
2022-12-23T03:50:22.844Z,9.443796
2022-12-23T03:51:22.867Z,9.443730
2022-12-23T03:52:22.834Z,9.443703
2022-12-23T03:53:22.828Z,9.443604
2022-12-23T03:54:22.862Z,9.443649
2022-12-23T03:55:22.803Z,9.443653
2022-12-23T03:56:22.841Z,9.443620
2022-12-23T03:57:22.799Z,9.443612
2022-12-23T03:58:22.799Z,9.443642
2022-12-23T03:59:24.771Z,9.443632
2022-12-23T04:00:22.782Z,9.443570
2022-12-23T04:01:22.812Z,9.443552
2022-12-23T04:02:22.911Z,9.443576
2022-12-23T04:03:22.821Z,9.443560
2022-12-23T04:04:22.801Z,9.443627
2022-12-23T04:05:22.750Z,9.443588
2022-12-23T04:06:22.784Z,9.443610
2022-12-23T04:07:22.741Z,9.443531
2022-12-23T04:08:22.746Z,9.443565
2022-12-23T04:09:22.744Z,9.443603
2022-12-23T04:10:22.747Z,9.443644
2022-12-23T04:11:23.715Z,9.443604
2022-12-23T04:12:22.716Z,9.443658
2022-12-23T04:13:22.707Z,9.443681
2022-12-23T04:14:22.688Z,9.443655
2022-12-23T04:15:22.723Z,9.443546
2022-12-23T04:16:22.761Z,9.443634
2022-12-23T04:17:22.681Z,9.443656
2022-12-23T04:18:22.701Z,9.443589
2022-12-23T04:19:22.680Z,9.443547
2022-12-23T04:20:22.710Z,9.443576
2022-12-23T04:21:22.646Z,9.443668
2022-12-23T04:22:22.663Z,9.443692
2022-12-23T04:23:22.671Z,9.443657
2022-12-23T04:24:22.658Z,9.443661
2022-12-23T04:25:22.664Z,9.443648
2022-12-23T04:26:22.611Z,9.443709
2022-12-23T04:27:23.151Z,9.443640
2022-12-23T04:28:22.592Z,9.443726
2022-12-23T04:29:22.615Z,9.443760
2022-12-23T04:30:25.519Z,9.443707
2022-12-23T04:31:23.634Z,9.443698
2022-12-23T04:32:22.588Z,9.443638
2022-12-23T04:33:22.562Z,9.443742
2022-12-23T04:34:22.588Z,9.443670
2022-12-23T04:35:23.222Z,9.443692
2022-12-23T04:36:22.558Z,9.443644
2022-12-23T04:37:22.573Z,9.443699
2022-12-23T04:38:22.557Z,9.443748
2022-12-23T04:39:22.626Z,9.443695
2022-12-23T04:40:22.529Z,9.443682
2022-12-23T04:41:22.569Z,9.443672
2022-12-23T04:42:23.533Z,9.443726
2022-12-23T04:43:22.514Z,9.443724
2022-12-23T04:44:22.571Z,9.443699
2022-12-23T04:45:22.515Z,9.443783
2022-12-23T04:46:22.549Z,9.443884
2022-12-23T04:47:22.509Z,9.443792
2022-12-23T04:48:22.511Z,9.443660
2022-12-23T04:49:22.507Z,9.443634
2022-12-23T04:50:22.490Z,9.443620
2022-12-23T04:51:22.474Z,9.443582
2022-12-23T04:52:22.460Z,9.443599
2022-12-23T04:53:22.662Z,9.443616
2022-12-23T04:54:22.450Z,9.443568
2022-12-23T04:55:22.525Z,9.443588
2022-12-23T04:56:22.448Z,9.443702
2022-12-23T04:57:22.453Z,9.443786
2022-12-23T04:58:22.415Z,9.443841
2022-12-23T04:59:22.417Z,9.443596
2022-12-23T05:00:22.416Z,9.443489
2022-12-23T05:01:22.559Z,9.443576
2022-12-23T05:02:22.457Z,9.443776
2022-12-23T05:03:22.400Z,9.443650
2022-12-23T05:04:22.440Z,9.443677
2022-12-23T05:05:22.403Z,9.443632
2022-12-23T05:06:22.403Z,9.443666
2022-12-23T05:07:22.376Z,9.443810
2022-12-23T05:08:22.353Z,9.443682
2022-12-23T05:09:22.348Z,9.443852
2022-12-23T05:10:22.380Z,9.443683
2022-12-23T05:11:22.345Z,9.443788
2022-12-23T05:12:22.361Z,9.443690
2022-12-23T05:13:22.384Z,9.443690
2022-12-23T05:14:22.318Z,9.443708
2022-12-23T05:15:22.337Z,9.443804
2022-12-23T05:16:22.478Z,9.443635
2022-12-23T05:17:22.312Z,9.443713
2022-12-23T05:18:22.321Z,9.443683
2022-12-23T05:19:22.306Z,9.443659
2022-12-23T05:20:22.308Z,9.443666
2022-12-23T05:21:22.321Z,9.443695
2022-12-23T05:22:22.287Z,9.443698
2022-12-23T05:23:22.267Z,9.443657
2022-12-23T05:24:22.255Z,9.443709
2022-12-23T05:25:22.255Z,9.443594
2022-12-23T05:26:22.272Z,9.443690
2022-12-23T05:27:22.321Z,9.443729
2022-12-23T05:28:22.230Z,9.443724
2022-12-23T05:29:22.252Z,9.443718
2022-12-23T05:30:22.228Z,9.443688
2022-12-23T05:31:22.311Z,9.443728
2022-12-23T05:32:23.238Z,9.443798
2022-12-23T05:33:22.223Z,9.443886
2022-12-23T05:34:22.201Z,9.443675
2022-12-23T05:35:22.221Z,9.443711
2022-12-23T05:36:22.185Z,9.443769
2022-12-23T05:37:22.239Z,9.443709
2022-12-23T05:38:22.176Z,9.443666
2022-12-23T05:39:22.156Z,9.443753
2022-12-23T05:40:24.263Z,9.443720
2022-12-23T05:41:23.155Z,9.443685
2022-12-23T05:42:22.165Z,9.443776
2022-12-23T05:43:22.181Z,9.443808
2022-12-23T05:44:22.129Z,9.443836
2022-12-23T05:45:22.148Z,9.443798
2022-12-23T05:46:26.647Z,9.443744
2022-12-23T05:47:24.195Z,9.443719
2022-12-23T05:48:22.122Z,9.443750
2022-12-23T05:49:22.115Z,9.443718
2022-12-23T05:50:22.085Z,9.443825
2022-12-23T05:51:22.099Z,9.443891
2022-12-23T05:52:22.104Z,9.443814
2022-12-23T05:53:22.088Z,9.443753
2022-12-23T05:54:22.076Z,9.443714
2022-12-23T05:55:22.078Z,9.443736
2022-12-23T05:56:23.791Z,9.443704
2022-12-23T05:57:22.078Z,9.443736
2022-12-23T05:58:22.054Z,9.443747
2022-12-23T05:59:22.873Z,9.443820
2022-12-23T06:00:22.051Z,9.443777
2022-12-23T06:01:22.021Z,9.443768
2022-12-23T06:02:22.393Z,9.443776
2022-12-23T06:03:22.220Z,9.443686
2022-12-23T06:04:22.048Z,9.443696
2022-12-23T06:05:22.007Z,9.443675
2022-12-23T06:06:21.995Z,9.443759
2022-12-23T06:07:22.008Z,9.443756
2022-12-23T06:08:22.032Z,9.443760
2022-12-23T06:09:21.977Z,9.443773
2022-12-23T06:10:22.000Z,9.443712
2022-12-23T06:11:21.988Z,9.443782
2022-12-23T06:12:22.161Z,9.443748
2022-12-23T06:13:22.000Z,9.443618
2022-12-23T06:14:28.381Z,9.443761
2022-12-23T06:15:23.974Z,9.443705
2022-12-23T06:16:21.984Z,9.443716
2022-12-23T06:17:21.941Z,9.443725
2022-12-23T06:18:21.943Z,9.443738
2022-12-23T06:19:22.713Z,9.443746
2022-12-23T06:20:21.944Z,9.443724
2022-12-23T06:21:21.923Z,9.443726
2022-12-23T06:22:21.921Z,9.443736
2022-12-23T06:23:21.903Z,9.443755
2022-12-23T06:24:21.912Z,9.443749
2022-12-23T06:25:21.883Z,9.443725
2022-12-23T06:26:21.874Z,9.443717
2022-12-23T06:27:21.866Z,9.443748
2022-12-23T06:28:21.869Z,9.443746
2022-12-23T06:29:21.883Z,9.443722
2022-12-23T06:30:21.849Z,9.443665
2022-12-23T06:31:21.957Z,9.443762
2022-12-23T06:32:21.839Z,9.443735
2022-12-23T06:33:21.827Z,9.443692
2022-12-23T06:34:21.878Z,9.443711
2022-12-23T06:35:21.829Z,9.443731
2022-12-23T06:36:21.812Z,9.443787
2022-12-23T06:37:21.815Z,9.443730
2022-12-23T06:38:21.813Z,9.443795
2022-12-23T06:39:21.796Z,9.443789
2022-12-23T06:40:21.823Z,9.443811
2022-12-23T06:41:21.800Z,9.443741
2022-12-23T06:42:21.781Z,9.443727
2022-12-23T06:43:21.805Z,9.443716
2022-12-23T06:44:21.786Z,9.443733
2022-12-23T06:45:21.758Z,9.443756
2022-12-23T06:46:21.850Z,9.443782
2022-12-23T06:47:21.794Z,9.443846
2022-12-23T06:48:21.804Z,9.443859
2022-12-23T06:49:21.734Z,9.443830
2022-12-23T06:50:21.735Z,9.443778
2022-12-23T06:51:21.756Z,9.443703
2022-12-23T06:52:21.700Z,9.443677
2022-12-23T06:53:21.724Z,9.443739
2022-12-23T06:54:21.700Z,9.443783
2022-12-23T06:55:21.687Z,9.443770
2022-12-23T06:56:21.720Z,9.443823
2022-12-23T06:57:21.703Z,9.443778
2022-12-23T06:58:21.668Z,9.443775
2022-12-23T06:59:21.654Z,9.443689
2022-12-23T07:00:21.670Z,9.443744
2022-12-23T07:01:21.693Z,9.443822
2022-12-23T07:02:22.747Z,9.443764
2022-12-23T07:03:21.692Z,9.443785
2022-12-23T07:04:21.639Z,9.443903
2022-12-23T07:05:21.633Z,9.443907
2022-12-23T07:06:21.625Z,9.443883
2022-12-23T07:07:21.617Z,9.443816
2022-12-23T07:08:21.620Z,9.443803
2022-12-23T07:09:21.619Z,9.443786
2022-12-23T07:10:21.606Z,9.443801
2022-12-23T07:11:21.588Z,9.443781
2022-12-23T07:12:21.568Z,9.443761
2022-12-23T07:13:21.583Z,9.443775
2022-12-23T07:14:21.564Z,9.443894
2022-12-23T07:15:21.581Z,9.443838
2022-12-23T07:16:21.666Z,9.443819
2022-12-23T07:17:21.544Z,9.443851
2022-12-23T07:18:21.546Z,9.443844
2022-12-23T07:19:21.555Z,9.443788
2022-12-23T07:20:21.518Z,9.443754
2022-12-23T07:21:28.674Z,9.443750
2022-12-23T07:22:23.508Z,9.443720
2022-12-23T07:23:21.514Z,9.443653
2022-12-23T07:24:21.505Z,9.443744
2022-12-23T07:25:21.519Z,9.443771
2022-12-23T07:26:21.485Z,9.443656
2022-12-23T07:27:21.501Z,9.443587
2022-12-23T07:28:21.480Z,9.443612
2022-12-23T07:29:21.462Z,9.443762
2022-12-23T07:30:21.523Z,9.443729
2022-12-23T07:31:21.628Z,9.443707
2022-12-23T07:32:21.460Z,9.443616
2022-12-23T07:33:21.454Z,9.443649
2022-12-23T07:34:21.438Z,9.443665
2022-12-23T07:35:21.483Z,9.443649
2022-12-23T07:36:21.425Z,9.443619
2022-12-23T07:37:22.261Z,9.443567
2022-12-23T07:38:21.427Z,9.443547
2022-12-23T07:39:21.413Z,9.443547
2022-12-23T07:40:21.396Z,9.443579
2022-12-23T07:41:21.412Z,9.443442
2022-12-23T07:43:23.418Z,9.443621
2022-12-23T07:44:21.365Z,9.443617
2022-12-23T07:45:21.375Z,9.443482
2022-12-23T07:46:21.556Z,9.443598
2022-12-23T07:47:21.368Z,9.443740
2022-12-23T07:48:21.363Z,9.443679
2022-12-23T07:49:21.372Z,9.443680
2022-12-23T07:50:21.345Z,9.443763
2022-12-23T07:51:21.325Z,9.443958
2022-12-23T07:52:21.338Z,9.443689
2022-12-23T07:53:21.310Z,9.443627
2022-12-23T07:54:21.336Z,9.443675
2022-12-23T07:55:21.319Z,9.443666
2022-12-23T07:56:21.292Z,9.443653
2022-12-23T07:57:21.290Z,9.443523
2022-12-23T07:58:21.298Z,9.443537
2022-12-23T07:59:21.278Z,9.443576
2022-12-23T08:00:21.263Z,9.443615
2022-12-23T08:01:21.338Z,9.443501
2022-12-23T08:02:21.430Z,9.443507
2022-12-23T08:03:23.348Z,9.443588
2022-12-23T08:04:21.407Z,9.443698
2022-12-23T08:05:21.398Z,9.443761
2022-12-23T08:06:21.244Z,9.443803
2022-12-23T08:07:21.236Z,9.443739
2022-12-23T08:08:21.202Z,9.443689
2022-12-23T08:09:21.224Z,9.443668
2022-12-23T08:10:21.197Z,9.443688
2022-12-23T08:11:21.204Z,9.443623
2022-12-23T08:12:21.174Z,9.443663
2022-12-23T08:13:21.203Z,9.443737
2022-12-23T08:14:21.187Z,9.443715
2022-12-23T08:15:21.166Z,9.443762
2022-12-23T08:16:21.227Z,9.443830
2022-12-23T08:17:21.251Z,9.443707
2022-12-23T08:18:21.172Z,9.443699
2022-12-23T08:19:21.162Z,9.443750
2022-12-23T08:20:21.136Z,9.443732
2022-12-23T08:21:21.142Z,9.443725
2022-12-23T08:22:21.117Z,9.443696
2022-12-23T08:23:24.702Z,9.443666
2022-12-23T08:24:22.134Z,9.443656
2022-12-23T08:25:21.105Z,9.443645
2022-12-23T08:26:21.082Z,9.443693
2022-12-23T08:27:21.080Z,9.443703
2022-12-23T08:28:21.197Z,9.443686
2022-12-23T08:29:21.085Z,9.443680
2022-12-23T08:30:21.082Z,9.443708
2022-12-23T08:31:21.255Z,9.443692
2022-12-23T08:32:21.041Z,9.443751
2022-12-23T08:33:21.051Z,9.443745
2022-12-23T08:34:21.098Z,9.443729
2022-12-23T08:35:21.033Z,9.443703
2022-12-23T08:36:23.367Z,9.443657
2022-12-23T08:37:22.069Z,9.443732
2022-12-23T08:38:21.020Z,9.443804
2022-12-23T08:39:21.010Z,9.443839
2022-12-23T08:40:21.034Z,9.443763
2022-12-23T08:41:20.991Z,9.443789
2022-12-23T08:42:21.105Z,9.443834
2022-12-23T08:43:20.982Z,9.443926
2022-12-23T08:44:20.974Z,9.443956
2022-12-23T08:45:20.987Z,9.443746
2022-12-23T08:46:21.028Z,9.443783
2022-12-23T08:47:20.957Z,9.443926
2022-12-23T08:48:20.955Z,9.443896
2022-12-23T08:49:20.973Z,9.443954
2022-12-23T08:50:20.974Z,9.443870
2022-12-23T08:51:21.932Z,9.443716
2022-12-23T08:52:20.974Z,9.443647
2022-12-23T08:53:20.950Z,9.443735
2022-12-23T08:54:20.933Z,9.443860
2022-12-23T08:55:20.900Z,9.443923
2022-12-23T08:56:21.936Z,9.443875
2022-12-23T08:57:20.895Z,9.443782
2022-12-23T08:58:20.930Z,9.443739
2022-12-23T08:59:20.896Z,9.443687
2022-12-23T09:00:20.865Z,9.443728
2022-12-23T09:01:20.916Z,9.443781
2022-12-23T09:02:20.978Z,9.443727
2022-12-23T09:03:21.001Z,9.443775
2022-12-23T09:04:20.844Z,9.443852
2022-12-23T09:05:20.847Z,9.443862
2022-12-23T09:06:28.219Z,9.443966
2022-12-23T09:07:22.865Z,9.443357
2022-12-23T09:08:20.841Z,9.443157
2022-12-23T09:09:20.827Z,9.443433
2022-12-23T09:10:20.841Z,9.443701
2022-12-23T09:11:20.808Z,9.443745
2022-12-23T09:12:20.825Z,9.443680
2022-12-23T09:13:30.847Z,9.443655
2022-12-23T09:14:22.805Z,9.443709
2022-12-23T09:15:20.782Z,9.443741
2022-12-23T09:16:20.863Z,9.443685
2022-12-23T09:17:20.766Z,9.443743
2022-12-23T09:18:20.786Z,9.443707
2022-12-23T09:19:20.767Z,9.443866
2022-12-23T09:20:20.767Z,9.443766
2022-12-23T09:21:20.738Z,9.443731
2022-12-23T09:22:20.745Z,9.443726
2022-12-23T09:23:20.742Z,9.443724
2022-12-23T09:24:20.717Z,9.443741
2022-12-23T09:25:20.742Z,9.443808
2022-12-23T09:26:20.708Z,9.443844
2022-12-23T09:27:21.725Z,9.443771
2022-12-23T09:28:20.697Z,9.443858
2022-12-23T09:29:20.691Z,9.443715
2022-12-23T09:30:20.792Z,9.443789
2022-12-23T09:31:20.754Z,9.443706
2022-12-23T09:32:20.672Z,9.443719
2022-12-23T09:33:20.662Z,9.443753
2022-12-23T09:34:20.675Z,9.443792
2022-12-23T09:35:20.665Z,9.443784
2022-12-23T09:36:20.672Z,9.443763
2022-12-23T09:37:20.664Z,9.443805
2022-12-23T09:38:20.638Z,9.443832
2022-12-23T09:39:20.622Z,9.443819
2022-12-23T09:40:20.707Z,9.443775
2022-12-23T09:41:20.713Z,9.443806
2022-12-23T09:42:20.609Z,9.443717
2022-12-23T09:43:20.621Z,9.443737
2022-12-23T09:44:20.612Z,9.443806
2022-12-23T09:45:20.645Z,9.443792
2022-12-23T09:46:20.723Z,9.443742
2022-12-23T09:47:20.592Z,9.443757
2022-12-23T09:48:20.581Z,9.443791
2022-12-23T09:49:20.588Z,9.443811
2022-12-23T09:50:20.653Z,9.443765
2022-12-23T09:51:20.545Z,9.443896
2022-12-23T09:52:20.604Z,9.443907
2022-12-23T09:53:20.557Z,9.443823
2022-12-23T09:54:20.571Z,9.443800
2022-12-23T09:55:20.577Z,9.443856
2022-12-23T09:56:20.513Z,9.443788
2022-12-23T09:57:20.567Z,9.443776
2022-12-23T09:58:20.505Z,9.443792
2022-12-23T09:59:20.490Z,9.443784
2022-12-23T10:00:20.566Z,9.443800
2022-12-23T10:01:20.499Z,9.443783
2022-12-23T10:02:20.574Z,9.443835
2022-12-23T10:03:20.659Z,9.443820
2022-12-23T10:04:20.526Z,9.443784
2022-12-23T10:05:20.513Z,9.443828
2022-12-23T10:06:20.478Z,9.443789
2022-12-23T10:07:20.467Z,9.443653
2022-12-23T10:08:20.450Z,9.443691
2022-12-23T10:09:20.435Z,9.443745
2022-12-23T10:10:20.429Z,9.443804
2022-12-23T10:11:20.430Z,9.443816
2022-12-23T10:12:27.183Z,9.443922
2022-12-23T10:13:22.446Z,9.443796
2022-12-23T10:14:21.404Z,9.443784
2022-12-23T10:15:20.412Z,9.443728
2022-12-23T10:16:20.476Z,9.443755
2022-12-23T10:17:20.406Z,9.443802
2022-12-23T10:18:20.399Z,9.443787
2022-12-23T10:19:20.373Z,9.443788
2022-12-23T10:20:21.366Z,9.443763
2022-12-23T10:21:20.357Z,9.443769
2022-12-23T10:22:20.332Z,9.443793
2022-12-23T10:23:20.363Z,9.443769
2022-12-23T10:24:20.328Z,9.443731
2022-12-23T10:25:20.331Z,9.443655
2022-12-23T10:26:20.339Z,9.443691
2022-12-23T10:27:20.302Z,9.443718
2022-12-23T10:28:20.325Z,9.443753
2022-12-23T10:29:20.290Z,9.443779
2022-12-23T10:30:53.831Z,9.443761
2022-12-23T10:32:22.415Z,9.443783
2022-12-23T10:33:20.293Z,9.443768
2022-12-23T10:34:20.276Z,9.443731
2022-12-23T10:35:21.240Z,9.443671
2022-12-23T10:36:20.401Z,9.443745
2022-12-23T10:37:20.258Z,9.443722
2022-12-23T10:38:20.263Z,9.443739
2022-12-23T10:39:20.229Z,9.443747
2022-12-23T10:40:20.256Z,9.443745
2022-12-23T10:41:20.252Z,9.443711
2022-12-23T10:42:20.261Z,9.443713
2022-12-23T10:43:20.228Z,9.443735
2022-12-23T10:44:20.212Z,9.443773
2022-12-23T10:45:20.189Z,9.443733
2022-12-23T10:46:20.235Z,9.443706
2022-12-23T10:47:20.196Z,9.443746
2022-12-23T10:48:20.170Z,9.443749
2022-12-23T10:49:20.241Z,9.443806
2022-12-23T10:50:20.177Z,9.443857
2022-12-23T10:51:20.176Z,9.443756
2022-12-23T10:52:20.168Z,9.443730
2022-12-23T10:53:20.135Z,9.443716
2022-12-23T10:54:20.153Z,9.443765
2022-12-23T10:55:20.205Z,9.443764
2022-12-23T10:56:20.186Z,9.443711
2022-12-23T10:57:20.138Z,9.443614
2022-12-23T10:58:21.151Z,9.443652
2022-12-23T10:59:20.143Z,9.443741
2022-12-23T11:00:20.269Z,9.443658
2022-12-23T11:01:26.425Z,9.443807
2022-12-23T11:02:22.302Z,9.443726
2022-12-23T11:03:20.313Z,9.443656
2022-12-23T11:04:20.066Z,9.443578
2022-12-23T11:05:20.056Z,9.443695
2022-12-23T11:06:20.049Z,9.443752
2022-12-23T11:07:43.383Z,9.443708
2022-12-23T11:08:22.072Z,9.443664
2022-12-23T11:09:20.042Z,9.443757
2022-12-23T11:10:20.080Z,9.443697
2022-12-23T11:11:20.018Z,9.443564
2022-12-23T11:12:20.042Z,9.443533
2022-12-23T11:13:20.029Z,9.443527
2022-12-23T11:14:20.145Z,9.443500
2022-12-23T11:15:20.008Z,9.443546
2022-12-23T11:16:21.095Z,9.443479
2022-12-23T11:17:19.983Z,9.443705
2022-12-23T11:18:19.975Z,9.443744
2022-12-23T11:19:19.965Z,9.443756
2022-12-23T11:20:19.977Z,9.443768
2022-12-23T11:21:19.967Z,9.443752
2022-12-23T11:22:19.989Z,9.443752
2022-12-23T11:23:19.950Z,9.443740
2022-12-23T11:24:19.929Z,9.443717
2022-12-23T11:25:19.968Z,9.443738
2022-12-23T11:26:19.959Z,9.443656
2022-12-23T11:27:19.940Z,9.443670
2022-12-23T11:28:19.966Z,9.443614
2022-12-23T11:29:19.928Z,9.443668
2022-12-23T11:30:19.901Z,9.443710
2022-12-23T11:31:19.954Z,9.443704
2022-12-23T11:32:19.883Z,9.443718
2022-12-23T11:33:19.881Z,9.443761
2022-12-23T11:34:19.915Z,9.443722
2022-12-23T11:35:19.918Z,9.443745
2022-12-23T11:36:19.888Z,9.443810
2022-12-23T11:37:19.841Z,9.443753
2022-12-23T11:38:19.853Z,9.443716
2022-12-23T11:39:19.883Z,9.443750
2022-12-23T11:40:19.855Z,9.443696
2022-12-23T11:41:19.844Z,9.443728
2022-12-23T11:42:19.827Z,9.443786
2022-12-23T11:43:19.876Z,9.443764
2022-12-23T11:44:19.801Z,9.443700
2022-12-23T11:45:19.815Z,9.443665
2022-12-23T11:46:19.848Z,9.443548